createdAt,value
2023-04-23T00:00:51.037Z,7.75
2023-04-23T00:02:56.065Z,7.47
2023-04-23T00:05:06.100Z,8.27
2023-04-23T00:07:09.231Z,7.55
2023-04-23T00:09:15.818Z,8.13
2023-04-23T00:11:18.918Z,4.45
2023-04-23T00:13:21.767Z,6.40
2023-04-23T00:15:24.819Z,7.88
2023-04-23T00:17:27.489Z,6.57
2023-04-23T00:19:30.067Z,7.72
2023-04-23T00:21:32.688Z,10.57
2023-04-23T00:23:35.231Z,7.13
2023-04-23T00:25:39.160Z,7.68
2023-04-23T00:27:41.695Z,11.55
2023-04-23T00:29:46.266Z,9.18
2023-04-23T00:31:48.968Z,8.77
2023-04-23T00:33:51.630Z,6.30
2023-04-23T00:35:54.134Z,8.75
2023-04-23T00:37:56.743Z,7.28
2023-04-23T00:39:59.301Z,8.40
2023-04-23T00:42:10.353Z,7.95
2023-04-23T00:44:14.067Z,10.23
2023-04-23T00:46:18.124Z,4.22
2023-04-23T00:48:21.575Z,12.60
2023-04-23T00:50:24.262Z,7.20
2023-04-23T00:52:26.926Z,7.03
2023-04-23T00:54:29.502Z,4.93
2023-04-23T00:56:32.077Z,4.65
2023-04-23T00:58:36.273Z,8.07
2023-04-23T01:00:46.200Z,6.00
2023-04-23T01:02:50.493Z,6.38
2023-04-23T01:04:54.849Z,7.32
2023-04-23T01:06:58.833Z,3.58
2023-04-23T01:09:01.927Z,6.07
2023-04-23T01:11:04.799Z,6.93
2023-04-23T01:13:07.427Z,8.85
2023-04-23T01:15:11.993Z,10.57
2023-04-23T01:17:14.644Z,5.15
2023-04-23T01:19:17.253Z,8.15
2023-04-23T01:21:21.021Z,7.13
2023-04-23T01:23:27.035Z,5.68
2023-04-23T01:25:29.691Z,5.60
2023-04-23T01:27:35.824Z,4.13
2023-04-23T01:29:39.437Z,4.30
2023-04-23T01:31:42.977Z,5.22
2023-04-23T01:33:46.696Z,8.77
2023-04-23T01:35:51.205Z,5.60
2023-04-23T01:37:56.112Z,7.03
2023-04-23T01:40:00.989Z,5.20
2023-04-23T01:42:04.008Z,7.28
2023-04-23T01:44:07.006Z,6.60
2023-04-23T01:46:10.427Z,5.55
2023-04-23T01:48:13.234Z,4.55
2023-04-23T01:50:16.136Z,9.65
2023-04-23T01:52:18.804Z,6.45
2023-04-23T01:54:21.398Z,7.90
2023-04-23T01:56:27.991Z,13.40
2023-04-23T01:58:30.556Z,6.68
2023-04-23T02:00:33.124Z,7.70
2023-04-23T02:02:36.263Z,7.90
2023-04-23T02:04:39.997Z,8.77
2023-04-23T02:06:44.970Z,6.90
2023-04-23T02:08:47.486Z,8.15
2023-04-23T02:10:50.107Z,6.57
2023-04-23T02:12:53.996Z,7.07
2023-04-23T02:14:56.558Z,6.25
2023-04-23T02:16:59.099Z,6.45
2023-04-23T02:19:01.838Z,6.35
2023-04-23T02:21:04.643Z,8.30
2023-04-23T02:23:07.410Z,8.63
2023-04-23T02:25:11.038Z,6.47
2023-04-23T02:27:13.607Z,13.52
2023-04-23T02:29:17.538Z,10.35
2023-04-23T02:31:20.689Z,6.40
2023-04-23T02:33:23.423Z,7.38
2023-04-23T02:35:26.816Z,5.65
2023-04-23T02:37:29.362Z,6.70
2023-04-23T02:39:32.308Z,9.13
2023-04-23T02:41:34.848Z,6.65
2023-04-23T02:43:37.366Z,5.65
2023-04-23T02:45:41.257Z,7.10
2023-04-23T02:47:43.776Z,7.75
2023-04-23T02:49:46.380Z,5.25
2023-04-23T02:51:48.917Z,7.55
2023-04-23T02:53:51.510Z,5.35
2023-04-23T02:55:54.022Z,5.28
2023-04-23T02:57:56.645Z,7.55
2023-04-23T02:59:59.166Z,7.45
2023-04-23T03:02:03.511Z,7.32
2023-04-23T03:04:06.251Z,6.70
2023-04-23T03:06:09.457Z,6.30
2023-04-23T03:08:11.981Z,6.47
2023-04-23T03:10:14.571Z,6.75
2023-04-23T03:12:18.214Z,4.78
2023-04-23T03:14:20.760Z,4.88
2023-04-23T03:16:23.438Z,6.75
2023-04-23T03:18:27.407Z,5.47
2023-04-23T03:20:29.944Z,5.57
2023-04-23T03:22:32.463Z,7.55
2023-04-23T03:24:35.838Z,7.32
2023-04-23T03:26:38.376Z,6.68
2023-04-23T03:28:40.915Z,5.72
2023-04-23T03:30:43.674Z,6.22
2023-04-23T03:32:46.330Z,5.75
2023-04-23T03:34:50.545Z,5.68
2023-04-23T03:36:53.097Z,8.82
2023-04-23T03:38:55.630Z,10.50
2023-04-23T03:40:58.266Z,5.85
2023-04-23T03:43:00.932Z,6.95
2023-04-23T03:45:03.466Z,4.85
2023-04-23T03:47:06.051Z,7.22
2023-04-23T03:49:08.630Z,5.43
2023-04-23T03:51:12.506Z,8.73
2023-04-23T03:53:15.073Z,5.10
2023-04-23T03:55:17.636Z,5.95
2023-04-23T03:57:21.815Z,4.72
2023-04-23T03:59:24.493Z,6.22
2023-04-23T04:01:27.049Z,7.00
2023-04-23T04:03:29.874Z,7.38
2023-04-23T04:05:32.605Z,3.35
2023-04-23T04:07:37.114Z,7.15
2023-04-23T04:09:40.296Z,4.18
2023-04-23T04:11:42.811Z,3.67
2023-04-23T04:13:45.349Z,5.45
2023-04-23T04:15:47.917Z,4.68
2023-04-23T04:17:50.527Z,4.10
2023-04-23T04:19:53.120Z,5.22
2023-04-23T04:21:56.117Z,3.00
2023-04-23T04:24:01.580Z,4.35
2023-04-23T04:26:04.816Z,3.13
2023-04-23T04:28:09.274Z,4.70
2023-04-23T04:30:12.612Z,4.70
2023-04-23T04:32:15.154Z,4.57
2023-04-23T04:34:17.832Z,5.40
2023-04-23T04:36:20.357Z,7.88
2023-04-23T04:38:23.117Z,7.20
2023-04-23T04:40:28.530Z,7.38
2023-04-23T04:42:31.431Z,5.53
2023-04-23T04:44:34.004Z,5.15
2023-04-23T04:46:40.392Z,4.45
2023-04-23T04:48:42.956Z,4.90
2023-04-23T04:50:46.460Z,6.00
2023-04-23T04:52:49.002Z,5.78
2023-04-23T04:54:51.564Z,6.63
2023-04-23T04:56:55.447Z,4.97
2023-04-23T04:58:58.052Z,4.68
2023-04-23T05:01:01.344Z,4.90
2023-04-23T05:03:04.746Z,5.20
2023-04-23T05:05:08.782Z,5.32
2023-04-23T05:07:11.330Z,11.73
2023-04-23T05:09:15.790Z,3.65
2023-04-23T05:11:19.834Z,4.13
2023-04-23T05:13:23.753Z,4.50
2023-04-23T05:15:26.297Z,7.05
2023-04-23T05:17:29.195Z,5.07
2023-04-23T05:19:32.303Z,3.80
2023-04-23T05:21:35.205Z,3.72
2023-04-23T05:23:37.841Z,3.00
2023-04-23T05:25:41.110Z,5.55
2023-04-23T05:27:43.651Z,5.78
2023-04-23T05:29:47.560Z,4.32
2023-04-23T05:31:50.341Z,3.22
2023-04-23T05:33:53.715Z,5.68
2023-04-23T05:35:57.258Z,2.70
2023-04-23T05:37:59.835Z,2.72
2023-04-23T05:40:04.832Z,2.13
2023-04-23T05:42:07.577Z,7.93
2023-04-23T05:44:10.133Z,2.58
2023-04-23T05:46:14.064Z,3.30
2023-04-23T05:48:16.624Z,3.22
2023-04-23T05:50:19.345Z,2.03
2023-04-23T05:52:21.918Z,3.15
2023-04-23T05:54:24.450Z,3.10
2023-04-23T05:56:27.034Z,4.53
2023-04-23T05:58:29.583Z,2.63
2023-04-23T06:00:32.429Z,2.13
2023-04-23T06:02:36.456Z,7.63
2023-04-23T06:04:39.338Z,3.80
2023-04-23T06:06:43.599Z,3.20
2023-04-23T06:08:46.176Z,2.30
2023-04-23T06:10:48.834Z,2.08
2023-04-23T06:12:51.371Z,2.97
2023-04-23T06:14:54.195Z,1.90
2023-04-23T06:16:56.730Z,2.72
2023-04-23T06:19:00.612Z,1.15
2023-04-23T06:21:04.305Z,1.73
2023-04-23T06:23:07.324Z,3.05
2023-04-23T06:25:10.679Z,1.50
2023-04-23T06:27:14.076Z,1.65
2023-04-23T06:29:16.724Z,2.88
2023-04-23T06:31:19.419Z,3.47
2023-04-23T06:33:21.985Z,1.38
2023-04-23T06:35:25.891Z,2.55
2023-04-23T06:37:30.629Z,1.88
2023-04-23T06:39:33.147Z,2.05
2023-04-23T06:41:35.706Z,1.48
2023-04-23T06:43:38.218Z,1.10
2023-04-23T06:45:40.793Z,1.95
2023-04-23T06:47:43.432Z,1.42
2023-04-23T06:49:45.991Z,2.33
2023-04-23T06:51:49.879Z,1.42
2023-04-23T06:53:52.404Z,2.28
2023-04-23T06:55:54.906Z,3.72
2023-04-23T06:57:57.652Z,2.60
2023-04-23T07:00:00.285Z,3.63
2023-04-23T07:02:02.809Z,1.10
2023-04-23T07:04:05.455Z,2.72
2023-04-23T07:06:08.302Z,0.85
2023-04-23T07:08:13.387Z,3.28
2023-04-23T07:10:17.963Z,2.08
2023-04-23T07:12:20.843Z,2.25
2023-04-23T07:14:23.458Z,2.60
2023-04-23T07:16:26.003Z,1.48
2023-04-23T07:18:28.569Z,1.08
2023-04-23T07:20:31.139Z,1.70
2023-04-23T07:22:33.920Z,3.47
2023-04-23T07:24:37.841Z,2.67
2023-04-23T07:26:41.030Z,1.60
2023-04-23T07:28:43.604Z,3.60
2023-04-23T07:30:46.262Z,2.65
2023-04-23T07:32:48.956Z,1.05
2023-04-23T07:34:51.556Z,2.88
2023-04-23T07:36:54.136Z,4.90
2023-04-23T07:38:56.659Z,1.45
2023-04-23T07:41:00.534Z,1.42
2023-04-23T07:43:03.091Z,1.88
2023-04-23T07:45:06.680Z,1.63
2023-04-23T07:47:09.209Z,0.98
2023-04-23T07:49:11.784Z,2.15
2023-04-23T07:51:14.310Z,1.75
2023-04-23T07:53:16.861Z,2.38
2023-04-23T07:55:20.344Z,1.40
2023-04-23T07:57:24.233Z,1.80
2023-04-23T07:59:26.767Z,0.80
2023-04-23T08:01:29.690Z,0.60
2023-04-23T08:03:32.400Z,1.00
2023-04-23T08:05:37.254Z,1.98
2023-04-23T08:07:39.846Z,1.15
2023-04-23T08:09:43.292Z,1.75
2023-04-23T08:11:46.146Z,1.52
2023-04-23T08:13:50.235Z,1.48
2023-04-23T08:15:52.932Z,1.73
2023-04-23T08:17:55.609Z,1.35
2023-04-23T08:19:58.322Z,2.40
2023-04-23T08:22:00.939Z,1.98
2023-04-23T08:24:04.289Z,1.02
2023-04-23T08:26:07.316Z,1.83
2023-04-23T08:28:09.896Z,1.13
2023-04-23T08:30:14.393Z,3.03
2023-04-23T08:32:17.033Z,1.50
2023-04-23T08:34:21.978Z,2.17
2023-04-23T08:36:24.621Z,1.27
2023-04-23T08:38:27.219Z,0.75
2023-04-23T08:40:33.046Z,1.88
2023-04-23T08:42:41.307Z,2.63
2023-04-23T08:44:44.007Z,1.08
2023-04-23T08:46:47.991Z,2.78
2023-04-23T08:48:53.859Z,2.75
2023-04-23T08:50:58.156Z,0.93
2023-04-23T08:53:01.062Z,1.42
2023-04-23T08:55:10.569Z,1.00
2023-04-23T08:57:14.903Z,3.30
2023-04-23T08:59:18.229Z,2.20
2023-04-23T09:01:20.995Z,1.30
2023-04-23T09:03:26.429Z,1.90
2023-04-23T09:05:29.156Z,1.25
2023-04-23T09:07:31.696Z,1.90
2023-04-23T09:09:35.736Z,1.67
2023-04-23T09:11:38.368Z,3.53
2023-04-23T09:13:41.844Z,3.60
2023-04-23T09:15:44.576Z,2.50
2023-04-23T09:17:48.496Z,2.13
2023-04-23T09:19:55.252Z,1.67
2023-04-23T09:22:02.117Z,2.10
2023-04-23T09:24:06.262Z,0.88
2023-04-23T09:26:09.434Z,4.00
2023-04-23T09:28:12.148Z,1.40
2023-04-23T09:30:15.518Z,1.77
2023-04-23T09:32:18.205Z,2.88
2023-04-23T09:34:22.457Z,2.55
2023-04-23T09:36:28.284Z,1.40
2023-04-23T09:38:31.687Z,1.10
2023-04-23T09:40:34.780Z,1.98
2023-04-23T09:42:38.204Z,1.38
2023-04-23T09:44:40.737Z,3.50
2023-04-23T09:46:44.779Z,1.45
2023-04-23T09:48:48.809Z,2.33
2023-04-23T09:50:51.389Z,1.80
2023-04-23T09:52:57.046Z,5.63
2023-04-23T09:54:59.901Z,2.17
2023-04-23T09:57:04.087Z,1.42
2023-04-23T09:59:23.010Z,1.88
2023-04-23T10:01:31.840Z,2.08
2023-04-23T10:03:34.519Z,2.30
2023-04-23T10:05:56.296Z,1.45
2023-04-23T10:08:04.160Z,1.80
2023-04-23T10:10:08.377Z,1.15
2023-04-23T10:14:18.128Z,1.63
2023-04-23T10:16:25.435Z,2.65
2023-04-23T10:18:33.833Z,2.25
2023-04-23T10:20:37.852Z,2.35
2023-04-23T10:22:45.139Z,1.75
2023-04-23T10:24:55.822Z,3.38
2023-04-23T10:27:02.106Z,2.70
2023-04-23T10:29:09.304Z,1.30
2023-04-23T10:31:11.958Z,1.05
2023-04-23T10:33:29.045Z,1.90
2023-04-23T10:35:34.930Z,1.83
2023-04-23T10:37:39.089Z,1.48
2023-04-23T10:39:45.104Z,3.53
2023-04-23T10:41:49.513Z,1.83
2023-04-23T10:43:53.981Z,3.05
2023-04-23T10:45:56.532Z,1.95
2023-04-23T10:47:59.588Z,1.35
2023-04-23T10:50:19.541Z,2.28
2023-04-23T10:52:25.238Z,1.10
2023-04-23T10:54:32.422Z,1.67
2023-04-23T10:56:35.109Z,2.58
2023-04-23T10:58:51.715Z,2.17
2023-04-23T11:00:54.395Z,1.40
2023-04-23T11:02:57.448Z,2.05
2023-04-23T11:05:01.820Z,5.50
2023-04-23T11:07:09.291Z,3.38
2023-04-23T11:09:32.283Z,1.35
2023-04-23T11:11:41.286Z,6.25
2023-04-23T11:13:54.707Z,1.95
2023-04-23T11:16:19.284Z,3.03
2023-04-23T11:18:24.853Z,3.25
2023-04-23T11:20:27.437Z,1.58
2023-04-23T11:22:35.607Z,2.50
2023-04-23T11:24:42.067Z,2.30
2023-04-23T11:26:45.387Z,4.10
2023-04-23T11:28:50.265Z,2.13
2023-04-23T11:30:54.708Z,1.50
2023-04-23T11:33:00.026Z,1.92
2023-04-23T11:35:05.150Z,3.22
2023-04-23T11:37:11.310Z,2.83
2023-04-23T11:39:13.858Z,2.33
2023-04-23T11:41:17.407Z,2.53
2023-04-23T11:43:21.319Z,3.97
2023-04-23T11:45:25.394Z,1.17
2023-04-23T11:47:29.360Z,1.33
2023-04-23T11:49:32.002Z,3.95
2023-04-23T11:51:34.595Z,2.67
2023-04-23T11:53:37.164Z,2.55
2023-04-23T11:55:43.889Z,1.55
2023-04-23T11:57:48.012Z,3.53
2023-04-23T11:59:50.535Z,0.95
2023-04-23T12:01:55.854Z,3.97
2023-04-23T12:03:59.888Z,1.50
2023-04-23T12:06:02.668Z,1.50
2023-04-23T12:08:10.003Z,4.72
2023-04-23T12:10:18.595Z,4.00
2023-04-23T12:12:21.618Z,1.63
2023-04-23T12:14:29.835Z,1.75
2023-04-23T12:16:37.478Z,4.30
2023-04-23T12:18:42.426Z,2.85
2023-04-23T12:20:46.973Z,2.97
2023-04-23T12:22:49.796Z,1.10
2023-04-23T12:24:54.330Z,1.52
2023-04-23T12:27:00.677Z,1.48
2023-04-23T12:29:03.479Z,0.93
2023-04-23T12:31:06.124Z,0.80
2023-04-23T12:33:12.462Z,3.50
2023-04-23T12:35:15.025Z,1.95
2023-04-23T12:37:18.891Z,2.22
2023-04-23T12:39:23.444Z,2.58
2023-04-23T12:41:25.973Z,1.35
2023-04-23T12:43:28.861Z,1.20
2023-04-23T12:45:38.233Z,4.32
2023-04-23T12:47:40.803Z,1.70
2023-04-23T12:49:43.908Z,2.13
2023-04-23T12:51:46.763Z,0.60
2023-04-23T12:53:51.200Z,2.15
2023-04-23T12:55:53.724Z,1.85
2023-04-23T12:57:56.367Z,2.90
2023-04-23T12:59:58.899Z,2.05
2023-04-23T13:02:03.500Z,2.38
2023-04-23T13:04:06.531Z,1.27
2023-04-23T13:06:09.212Z,1.15
2023-04-23T13:08:11.756Z,3.75
2023-04-23T13:10:15.760Z,2.40
2023-04-23T13:12:18.305Z,1.77
2023-04-23T13:14:21.152Z,4.63
2023-04-23T13:16:23.737Z,1.75
2023-04-23T13:18:26.390Z,1.40
2023-04-23T13:20:28.954Z,1.63
2023-04-23T13:22:32.039Z,1.80
2023-04-23T13:24:34.600Z,1.77
2023-04-23T13:26:38.608Z,2.47
2023-04-23T13:28:41.278Z,2.63
2023-04-23T13:30:43.820Z,1.25
2023-04-23T13:32:46.444Z,3.17
2023-04-23T13:34:49.056Z,4.32
2023-04-23T13:36:51.671Z,4.03
2023-04-23T13:38:54.234Z,3.15
2023-04-23T13:40:59.323Z,1.25
2023-04-23T13:43:03.209Z,2.80
2023-04-23T13:45:07.209Z,3.17
2023-04-23T13:47:09.873Z,1.48
2023-04-23T13:49:12.394Z,3.58
2023-04-23T13:51:33.167Z,2.17
2023-04-23T13:53:37.068Z,1.98
2023-04-23T13:55:39.969Z,3.00
2023-04-23T13:57:42.591Z,2.13
2023-04-23T13:59:46.492Z,2.42
2023-04-23T14:01:50.320Z,1.77
2023-04-23T14:03:52.997Z,2.97
2023-04-23T14:05:55.524Z,2.70
2023-04-23T14:07:58.044Z,2.92
2023-04-23T14:10:00.724Z,1.67
2023-04-23T14:12:03.630Z,5.63
2023-04-23T14:14:07.348Z,2.55
2023-04-23T14:16:11.396Z,3.90
2023-04-23T14:18:13.960Z,5.57
2023-04-23T14:20:17.522Z,2.75
2023-04-23T14:22:20.054Z,3.38
2023-04-23T14:24:24.630Z,2.30
2023-04-23T14:26:47.471Z,1.85
2023-04-23T14:28:52.948Z,1.23
2023-04-23T14:30:57.628Z,2.10
2023-04-23T14:33:01.544Z,2.30
2023-04-23T14:35:04.412Z,6.00
2023-04-23T14:37:07.129Z,5.95
2023-04-23T14:39:09.697Z,3.85
2023-04-23T14:41:12.568Z,1.80
2023-04-23T14:43:16.266Z,1.83
2023-04-23T14:45:19.204Z,4.00
2023-04-23T14:47:21.805Z,2.90
2023-04-23T14:49:26.315Z,5.38
2023-04-23T14:51:29.287Z,3.17
2023-04-23T14:53:32.075Z,3.03
2023-04-23T14:55:35.556Z,1.55
2023-04-23T14:57:38.144Z,3.78
2023-04-23T14:59:41.772Z,3.75
2023-04-23T15:01:48.011Z,3.67
2023-04-23T15:03:53.575Z,3.05
2023-04-23T15:05:57.657Z,2.28
2023-04-23T15:08:00.163Z,3.53
2023-04-23T15:10:06.345Z,5.88
2023-04-23T15:12:43.140Z,5.40
2023-04-23T15:14:46.191Z,3.40
2023-04-23T15:16:49.757Z,2.63
2023-04-23T15:18:52.655Z,3.75
2023-04-23T15:20:55.265Z,1.83
2023-04-23T15:22:59.134Z,3.78
2023-04-23T15:25:01.704Z,2.85
2023-04-23T15:27:04.539Z,1.77
2023-04-23T15:29:08.774Z,3.40
2023-04-23T15:31:12.046Z,2.35
2023-04-23T15:33:14.619Z,3.33
2023-04-23T15:35:17.417Z,2.15
2023-04-23T15:37:21.066Z,1.75
2023-04-23T15:39:24.989Z,2.90
2023-04-23T15:41:27.547Z,2.33
2023-04-23T15:43:30.084Z,4.82
2023-04-23T15:45:32.656Z,5.35
2023-04-23T15:47:35.307Z,2.80
2023-04-23T15:49:41.849Z,5.57
2023-04-23T15:51:44.826Z,3.03
2023-04-23T15:53:47.435Z,3.53
2023-04-23T15:55:52.194Z,2.30
2023-04-23T15:57:54.764Z,2.90
2023-04-23T15:59:57.304Z,4.70
2023-04-23T16:01:59.899Z,3.47
2023-04-23T16:04:10.469Z,2.30
2023-04-23T16:06:14.448Z,2.60
2023-04-23T16:08:19.683Z,2.42
2023-04-23T16:10:22.301Z,3.95
2023-04-23T16:12:26.211Z,22.95
2023-04-23T16:14:28.831Z,6.88
2023-04-23T16:16:31.694Z,11.52
2023-04-23T16:18:34.515Z,6.10
2023-04-23T16:20:37.060Z,8.77
2023-04-23T16:22:39.676Z,4.22
2023-04-23T16:24:42.239Z,7.28
2023-04-23T16:26:44.791Z,2.80
2023-04-23T16:28:52.335Z,1.13
2023-04-23T16:31:03.715Z,5.40
2023-04-23T16:33:06.660Z,3.78
2023-04-23T16:35:10.028Z,3.83
2023-04-23T16:37:15.685Z,4.28
2023-04-23T16:39:18.239Z,4.45
2023-04-23T16:41:21.397Z,6.90
2023-04-23T16:43:23.930Z,5.57
2023-04-23T16:45:27.803Z,4.32
2023-04-23T16:47:30.319Z,8.93
2023-04-23T16:49:33.045Z,4.13
2023-04-23T16:51:35.617Z,3.50
2023-04-23T16:53:41.130Z,4.85
2023-04-23T16:55:43.838Z,6.88
2023-04-23T16:57:46.399Z,4.40
2023-04-23T16:59:49.048Z,5.75
2023-04-23T17:01:53.034Z,4.78
2023-04-23T17:03:55.999Z,6.28
2023-04-23T17:06:08.428Z,2.47
2023-04-23T17:08:11.187Z,6.40
2023-04-23T17:10:15.380Z,7.57
2023-04-23T17:12:17.975Z,4.40
2023-04-23T17:14:20.739Z,7.35
2023-04-23T17:16:25.207Z,3.92
2023-04-23T17:18:29.258Z,5.80
2023-04-23T17:20:35.096Z,6.25
2023-04-23T17:22:37.794Z,6.05
2023-04-23T17:24:40.766Z,5.63
2023-04-23T17:26:43.654Z,4.80
2023-04-23T17:28:46.216Z,5.80
2023-04-23T17:30:50.319Z,6.38
2023-04-23T17:32:52.944Z,5.10
2023-04-23T17:35:08.864Z,4.80
2023-04-23T17:37:12.964Z,7.70
2023-04-23T17:39:19.732Z,12.25
2023-04-23T17:41:22.831Z,12.02
2023-04-23T17:43:25.833Z,8.27
2023-04-23T17:45:28.455Z,9.35
2023-04-23T17:47:31.254Z,5.15
2023-04-23T17:49:33.797Z,6.75
2023-04-23T17:51:37.749Z,6.13
2023-04-23T17:53:42.040Z,6.07
2023-04-23T17:55:44.603Z,7.07
2023-04-23T17:57:47.131Z,5.88
2023-04-23T17:59:49.651Z,5.20
2023-04-23T18:01:52.249Z,4.30
2023-04-23T18:03:55.058Z,4.18
2023-04-23T18:05:57.834Z,4.50
2023-04-23T18:08:01.847Z,3.50
2023-04-23T18:10:06.457Z,3.47
2023-04-23T18:12:09.022Z,5.32
2023-04-23T18:14:12.826Z,5.50
2023-04-23T18:16:15.521Z,4.72
2023-04-23T18:18:20.776Z,3.40
2023-04-23T18:20:24.933Z,5.47
2023-04-23T18:22:27.841Z,2.67
2023-04-23T18:24:31.760Z,7.75
2023-04-23T18:26:34.282Z,3.67
2023-04-23T18:28:37.156Z,4.65
2023-04-23T18:30:39.854Z,3.55
2023-04-23T18:32:48.060Z,2.42
2023-04-23T18:34:50.763Z,5.05
2023-04-23T18:36:56.464Z,5.28
2023-04-23T18:38:59.536Z,4.20
2023-04-23T18:41:04.574Z,3.50
2023-04-23T18:43:07.163Z,3.88
2023-04-23T18:45:10.698Z,3.03
2023-04-23T18:47:13.331Z,3.78
2023-04-23T18:49:46.288Z,4.07
2023-04-23T18:51:52.019Z,4.22
2023-04-23T18:53:54.554Z,6.13
2023-04-23T18:55:57.159Z,5.07
2023-04-23T18:58:02.416Z,5.30
2023-04-23T19:00:07.332Z,3.97
2023-04-23T19:02:11.834Z,3.95
2023-04-23T19:04:17.279Z,4.70
2023-04-23T19:06:20.022Z,3.75
2023-04-23T19:08:28.235Z,4.47
2023-04-23T19:10:30.823Z,3.95
2023-04-23T19:12:33.359Z,6.97
2023-04-23T19:14:37.569Z,3.58
2023-04-23T19:16:40.401Z,3.88
2023-04-23T19:18:43.102Z,9.65
2023-04-23T19:20:45.718Z,3.90
2023-04-23T19:22:50.495Z,3.97
2023-04-23T19:24:53.188Z,2.03
2023-04-23T19:26:56.326Z,1.58
2023-04-23T19:28:58.865Z,3.75
2023-04-23T19:31:04.018Z,3.42
2023-04-23T19:33:06.881Z,2.60
2023-04-23T19:35:09.623Z,1.70
2023-04-23T19:37:12.419Z,1.58
2023-04-23T19:39:14.968Z,3.95
2023-04-23T19:41:17.500Z,1.02
2023-04-23T19:43:20.183Z,0.95
2023-04-23T19:45:22.733Z,1.90
2023-04-23T19:47:26.632Z,2.38
2023-04-23T19:49:29.241Z,1.02
2023-04-23T19:51:35.392Z,1.95
2023-04-23T19:53:37.978Z,8.27
2023-04-23T19:55:40.584Z,1.60
2023-04-23T19:57:43.152Z,3.08
2023-04-23T19:59:45.881Z,1.05
2023-04-23T20:01:48.486Z,1.92
2023-04-23T20:03:53.585Z,2.33
2023-04-23T20:05:58.316Z,2.95
2023-04-23T20:08:04.105Z,1.10
2023-04-23T20:10:07.810Z,0.98
2023-04-23T20:12:10.427Z,1.40
2023-04-23T20:14:13.772Z,2.63
2023-04-23T20:16:16.480Z,1.33
2023-04-23T20:18:19.532Z,1.13
2023-04-23T20:20:25.470Z,1.20
2023-04-23T20:22:28.221Z,0.88
2023-04-23T20:24:31.000Z,1.08
2023-04-23T20:26:33.647Z,0.73
2023-04-23T20:28:37.036Z,4.55
2023-04-23T20:30:39.566Z,2.15
2023-04-23T20:32:42.573Z,1.88
2023-04-23T20:34:45.312Z,1.52
2023-04-23T20:36:51.022Z,1.52
2023-04-23T20:38:54.213Z,1.50
2023-04-23T20:40:57.078Z,2.05
2023-04-23T20:42:59.863Z,3.53
2023-04-23T20:45:02.405Z,1.77
2023-04-23T20:47:05.609Z,5.15
2023-04-23T20:49:08.776Z,1.00
2023-04-23T20:51:11.290Z,1.27
2023-04-23T20:53:15.388Z,1.00
2023-04-23T20:55:18.037Z,3.58
2023-04-23T20:57:20.966Z,1.35
2023-04-23T20:59:23.549Z,1.42
2023-04-23T21:01:26.564Z,1.50
2023-04-23T21:03:32.688Z,2.92
2023-04-23T21:05:35.450Z,2.60
2023-04-23T21:07:37.981Z,1.88
2023-04-23T21:09:42.225Z,1.92
2023-04-23T21:11:44.929Z,3.33
2023-04-23T21:13:47.912Z,0.75
2023-04-23T21:15:51.834Z,2.17
2023-04-23T21:17:54.403Z,2.50
2023-04-23T21:19:59.296Z,4.68
2023-04-23T21:22:01.856Z,1.33
2023-04-23T21:24:04.714Z,2.92
2023-04-23T21:26:08.664Z,2.88
2023-04-23T21:28:11.321Z,1.00
2023-04-23T21:30:22.036Z,0.63
2023-04-23T21:32:24.597Z,1.20
2023-04-23T21:34:27.424Z,0.77
2023-04-23T21:36:29.996Z,1.00
2023-04-23T21:38:33.257Z,0.70
2023-04-23T21:40:37.146Z,5.03
2023-04-23T21:42:41.079Z,2.33
2023-04-23T21:44:43.660Z,1.40
2023-04-23T21:46:46.749Z,1.17
2023-04-23T21:48:50.207Z,1.45
2023-04-23T21:50:53.623Z,1.27
2023-04-23T21:52:58.267Z,1.50
2023-04-23T21:55:01.146Z,2.42
2023-04-23T21:57:03.834Z,3.58
2023-04-23T21:59:07.710Z,0.98
2023-04-23T22:01:10.355Z,1.10
2023-04-23T22:03:17.835Z,2.60
2023-04-23T22:05:28.458Z,1.33
2023-04-23T22:07:32.251Z,1.38
2023-04-23T22:09:34.808Z,1.05
2023-04-23T22:11:37.370Z,1.50
2023-04-23T22:13:40.009Z,1.50
2023-04-23T22:15:44.266Z,2.80
2023-04-23T22:17:50.317Z,1.83
2023-04-23T22:19:53.161Z,4.30
2023-04-23T22:21:55.899Z,1.83
2023-04-23T22:23:58.420Z,1.77
2023-04-23T22:26:01.023Z,1.00
2023-04-23T22:28:03.683Z,1.55
2023-04-23T22:30:08.589Z,2.15
2023-04-23T22:32:12.539Z,1.42
2023-04-23T22:34:15.118Z,3.50
2023-04-23T22:36:17.898Z,3.65
2023-04-23T22:38:21.020Z,2.88
2023-04-23T22:40:23.687Z,2.83
2023-04-23T22:42:26.255Z,3.70
2023-04-23T22:44:28.770Z,2.15
2023-04-23T22:46:31.851Z,3.03
2023-04-23T22:48:37.676Z,2.20
2023-04-23T22:50:42.626Z,4.50
2023-04-23T22:52:45.328Z,4.32
2023-04-23T22:54:48.434Z,1.45
2023-04-23T22:56:51.158Z,2.03
2023-04-23T22:58:53.794Z,3.97
2023-04-23T23:00:56.435Z,1.90
2023-04-23T23:02:59.069Z,1.67
2023-04-23T23:05:03.157Z,2.42
2023-04-23T23:07:05.873Z,1.95
2023-04-23T23:09:08.435Z,2.03
2023-04-23T23:11:11.004Z,2.30
2023-04-23T23:13:13.565Z,0.85
2023-04-23T23:15:16.110Z,2.63
2023-04-23T23:17:18.661Z,3.22
2023-04-23T23:19:21.264Z,4.00
2023-04-23T23:21:25.421Z,1.08
2023-04-23T23:23:27.986Z,1.92
2023-04-23T23:25:30.621Z,1.17
2023-04-23T23:27:33.184Z,1.17
2023-04-23T23:29:35.834Z,1.25
2023-04-23T23:31:38.505Z,0.98
2023-04-23T23:33:41.235Z,2.58
2023-04-23T23:35:43.925Z,2.85
2023-04-23T23:37:47.813Z,3.50
2023-04-23T23:39:50.365Z,0.93
2023-04-23T23:41:52.950Z,2.53
2023-04-23T23:43:55.680Z,1.98
2023-04-23T23:45:58.286Z,2.33
2023-04-23T23:48:00.980Z,0.82
2023-04-23T23:50:03.627Z,1.00
2023-04-23T23:52:06.202Z,1.00
2023-04-23T23:54:10.075Z,2.25
2023-04-23T23:56:12.596Z,3.40
2023-04-23T23:58:15.228Z,2.63
